sensor_id;sensor_type;location;lat;lon;timestamp;P1;durP1;ratioP1;P2;durP2;ratioP2
21833;SDS011;11079;51.092;3.458;2023-11-19T00:01:25;21.50;;;4.55;;
21833;SDS011;11079;51.092;3.458;2023-11-19T00:04:00;23.45;;;4.50;;
21833;SDS011;11079;51.092;3.458;2023-11-19T00:06:26;33.15;;;5.50;;
21833;SDS011;11079;51.092;3.458;2023-11-19T00:09:00;29.33;;;5.10;;
21833;SDS011;11079;51.092;3.458;2023-11-19T00:12:00;25.40;;;5.15;;
21833;SDS011;11079;51.092;3.458;2023-11-19T00:14:45;30.73;;;6.15;;
21833;SDS011;11079;51.092;3.458;2023-11-19T00:17:20;25.77;;;4.72;;
21833;SDS011;11079;51.092;3.458;2023-11-19T00:19:51;35.90;;;5.85;;
21833;SDS011;11079;51.092;3.458;2023-11-19T00:22:27;31.08;;;6.95;;
21833;SDS011;11079;51.092;3.458;2023-11-19T00:24:55;31.55;;;5.93;;
21833;SDS011;11079;51.092;3.458;2023-11-19T00:27:28;30.90;;;6.60;;
21833;SDS011;11079;51.092;3.458;2023-11-19T00:29:57;32.75;;;6.32;;
21833;SDS011;11079;51.092;3.458;2023-11-19T00:32:25;34.90;;;6.85;;
21833;SDS011;11079;51.092;3.458;2023-11-19T00:34:54;39.38;;;6.30;;
21833;SDS011;11079;51.092;3.458;2023-11-19T00:37:25;27.00;;;6.43;;
21833;SDS011;11079;51.092;3.458;2023-11-19T00:40:00;27.83;;;5.95;;
21833;SDS011;11079;51.092;3.458;2023-11-19T00:42:50;28.65;;;5.90;;
21833;SDS011;11079;51.092;3.458;2023-11-19T00:51:23;32.85;;;7.18;;
21833;SDS011;11079;51.092;3.458;2023-11-19T00:57:16;32.83;;;7.00;;
21833;SDS011;11079;51.092;3.458;2023-11-19T01:03:15;28.38;;;7.85;;
21833;SDS011;11079;51.092;3.458;2023-11-19T01:06:25;38.05;;;7.93;;
21833;SDS011;11079;51.092;3.458;2023-11-19T01:09:21;34.10;;;7.00;;
21833;SDS011;11079;51.092;3.458;2023-11-19T01:11:50;39.58;;;7.40;;
21833;SDS011;11079;51.092;3.458;2023-11-19T01:14:33;43.33;;;6.95;;
21833;SDS011;11079;51.092;3.458;2023-11-19T01:17:21;40.03;;;8.18;;
21833;SDS011;11079;51.092;3.458;2023-11-19T01:24:11;36.15;;;7.72;;
21833;SDS011;11079;51.092;3.458;2023-11-19T01:30:31;48.85;;;9.02;;
21833;SDS011;11079;51.092;3.458;2023-11-19T01:33:40;37.90;;;7.28;;
21833;SDS011;11079;51.092;3.458;2023-11-19T01:36:39;46.60;;;8.00;;
21833;SDS011;11079;51.092;3.458;2023-11-19T01:39:38;33.75;;;7.80;;
21833;SDS011;11079;51.092;3.458;2023-11-19T01:42:36;32.92;;;7.03;;
21833;SDS011;11079;51.092;3.458;2023-11-19T02:16:26;44.20;;;7.90;;
21833;SDS011;11079;51.092;3.458;2023-11-19T07:38:33;33.20;;;6.30;;
21833;SDS011;11079;51.092;3.458;2023-11-19T07:41:38;37.13;;;7.28;;
21833;SDS011;11079;51.092;3.458;2023-11-19T07:44:29;34.63;;;6.78;;
21833;SDS011;11079;51.092;3.458;2023-11-19T07:47:44;38.70;;;8.77;;
21833;SDS011;11079;51.092;3.458;2023-11-19T07:50:20;30.88;;;7.35;;
21833;SDS011;11079;51.092;3.458;2023-11-19T07:53:31;31.13;;;7.57;;
21833;SDS011;11079;51.092;3.458;2023-11-19T07:59:05;44.17;;;7.80;;
21833;SDS011;11079;51.092;3.458;2023-11-19T08:01:53;28.05;;;6.60;;
21833;SDS011;11079;51.092;3.458;2023-11-19T08:07:46;34.65;;;7.13;;
21833;SDS011;11079;51.092;3.458;2023-11-19T08:14:20;33.20;;;6.13;;
21833;SDS011;11079;51.092;3.458;2023-11-19T08:20:58;28.38;;;5.75;;
21833;SDS011;11079;51.092;3.458;2023-11-19T08:23:25;35.75;;;5.88;;
21833;SDS011;11079;51.092;3.458;2023-11-19T08:25:53;34.05;;;6.97;;
21833;SDS011;11079;51.092;3.458;2023-11-19T08:28:21;38.30;;;6.35;;
21833;SDS011;11079;51.092;3.458;2023-11-19T08:30:50;34.60;;;6.90;;
21833;SDS011;11079;51.092;3.458;2023-11-19T08:33:18;30.33;;;6.30;;
21833;SDS011;11079;51.092;3.458;2023-11-19T08:35:53;32.90;;;7.85;;
21833;SDS011;11079;51.092;3.458;2023-11-19T08:38:21;25.90;;;6.72;;
21833;SDS011;11079;51.092;3.458;2023-11-19T08:40:50;33.33;;;6.78;;
21833;SDS011;11079;51.092;3.458;2023-11-19T08:43:17;33.60;;;7.20;;
21833;SDS011;11079;51.092;3.458;2023-11-19T08:45:43;36.88;;;8.23;;
21833;SDS011;11079;51.092;3.458;2023-11-19T08:48:08;36.50;;;7.32;;
21833;SDS011;11079;51.092;3.458;2023-11-19T08:57:05;26.48;;;5.38;;
21833;SDS011;11079;51.092;3.458;2023-11-19T08:59:34;32.17;;;6.38;;
21833;SDS011;11079;51.092;3.458;2023-11-19T09:02:01;27.48;;;5.47;;
21833;SDS011;11079;51.092;3.458;2023-11-19T09:04:37;34.45;;;7.05;;
21833;SDS011;11079;51.092;3.458;2023-11-19T09:07:05;26.25;;;5.70;;
21833;SDS011;11079;51.092;3.458;2023-11-19T09:09:32;31.75;;;6.70;;
21833;SDS011;11079;51.092;3.458;2023-11-19T09:12:00;30.92;;;6.60;;
21833;SDS011;11079;51.092;3.458;2023-11-19T09:14:26;32.22;;;6.45;;
21833;SDS011;11079;51.092;3.458;2023-11-19T09:16:52;29.35;;;6.25;;
21833;SDS011;11079;51.092;3.458;2023-11-19T09:19:18;32.17;;;5.68;;
21833;SDS011;11079;51.092;3.458;2023-11-19T09:21:43;32.25;;;7.13;;
21833;SDS011;11079;51.092;3.458;2023-11-19T09:24:09;22.95;;;5.35;;
21833;SDS011;11079;51.092;3.458;2023-11-19T09:26:35;24.42;;;6.68;;
21833;SDS011;11079;51.092;3.458;2023-11-19T09:29:04;26.67;;;6.53;;
21833;SDS011;11079;51.092;3.458;2023-11-19T09:31:47;26.45;;;5.03;;
21833;SDS011;11079;51.092;3.458;2023-11-19T09:34:32;19.92;;;5.20;;
21833;SDS011;11079;51.092;3.458;2023-11-19T09:37:07;28.05;;;5.93;;
21833;SDS011;11079;51.092;3.458;2023-11-19T09:43:04;30.35;;;5.95;;
21833;SDS011;11079;51.092;3.458;2023-11-19T09:46:11;29.50;;;6.07;;
21833;SDS011;11079;51.092;3.458;2023-11-19T09:49:01;32.92;;;7.03;;
21833;SDS011;11079;51.092;3.458;2023-11-19T09:51:40;41.00;;;6.35;;
21833;SDS011;11079;51.092;3.458;2023-11-19T09:54:06;32.38;;;6.50;;
21833;SDS011;11079;51.092;3.458;2023-11-19T09:56:41;37.75;;;7.28;;
21833;SDS011;11079;51.092;3.458;2023-11-19T09:59:35;32.60;;;7.15;;
21833;SDS011;11079;51.092;3.458;2023-11-19T10:02:47;28.75;;;6.65;;
21833;SDS011;11079;51.092;3.458;2023-11-19T10:05:25;22.35;;;5.15;;
21833;SDS011;11079;51.092;3.458;2023-11-19T10:07:52;25.80;;;5.35;;
21833;SDS011;11079;51.092;3.458;2023-11-19T10:10:20;31.90;;;8.48;;
21833;SDS011;11079;51.092;3.458;2023-11-19T10:12:57;26.00;;;6.22;;
21833;SDS011;11079;51.092;3.458;2023-11-19T10:15:26;26.55;;;5.68;;
21833;SDS011;11079;51.092;3.458;2023-11-19T10:20:53;25.52;;;5.82;;
21833;SDS011;11079;51.092;3.458;2023-11-19T10:23:20;19.52;;;5.22;;
21833;SDS011;11079;51.092;3.458;2023-11-19T10:25:46;32.92;;;6.43;;
21833;SDS011;11079;51.092;3.458;2023-11-19T10:28:11;27.02;;;5.80;;
21833;SDS011;11079;51.092;3.458;2023-11-19T10:30:41;23.50;;;5.68;;
21833;SDS011;11079;51.092;3.458;2023-11-19T10:33:18;27.10;;;5.75;;
21833;SDS011;11079;51.092;3.458;2023-11-19T10:35:55;21.92;;;5.45;;
21833;SDS011;11079;51.092;3.458;2023-11-19T10:38:25;28.52;;;5.85;;
21833;SDS011;11079;51.092;3.458;2023-11-19T10:40:52;25.30;;;4.95;;
21833;SDS011;11079;51.092;3.458;2023-11-19T10:43:18;24.55;;;5.38;;
21833;SDS011;11079;51.092;3.458;2023-11-19T10:45:47;25.98;;;4.60;;
21833;SDS011;11079;51.092;3.458;2023-11-19T10:48:13;24.92;;;5.88;;
21833;SDS011;11079;51.092;3.458;2023-11-19T10:50:59;20.73;;;4.82;;
21833;SDS011;11079;51.092;3.458;2023-11-19T10:53:25;20.10;;;5.00;;
21833;SDS011;11079;51.092;3.458;2023-11-19T10:56:01;23.88;;;5.55;;
21833;SDS011;11079;51.092;3.458;2023-11-19T10:59:09;30.73;;;5.82;;
21833;SDS011;11079;51.092;3.458;2023-11-19T11:01:48;19.67;;;4.53;;
21833;SDS011;11079;51.092;3.458;2023-11-19T11:07:46;23.05;;;4.72;;
21833;SDS011;11079;51.092;3.458;2023-11-19T11:13:18;24.05;;;5.68;;
21833;SDS011;11079;51.092;3.458;2023-11-19T11:19:35;24.27;;;5.60;;
21833;SDS011;11079;51.092;3.458;2023-11-19T11:22:28;33.45;;;7.32;;
21833;SDS011;11079;51.092;3.458;2023-11-19T11:39:25;31.25;;;8.18;;
21833;SDS011;11079;51.092;3.458;2023-11-19T11:42:30;26.20;;;6.35;;
21833;SDS011;11079;51.092;3.458;2023-11-19T11:45:04;24.25;;;5.57;;
21833;SDS011;11079;51.092;3.458;2023-11-19T11:50:52;18.35;;;4.78;;
21833;SDS011;11079;51.092;3.458;2023-11-19T11:53:21;20.15;;;5.25;;
21833;SDS011;11079;51.092;3.458;2023-11-19T11:58:30;23.63;;;5.20;;
21833;SDS011;11079;51.092;3.458;2023-11-19T12:01:16;21.55;;;5.55;;
21833;SDS011;11079;51.092;3.458;2023-11-19T12:03:48;27.40;;;5.43;;
21833;SDS011;11079;51.092;3.458;2023-11-19T12:06:31;22.77;;;5.22;;
21833;SDS011;11079;51.092;3.458;2023-11-19T12:13:00;22.02;;;5.50;;
21833;SDS011;11079;51.092;3.458;2023-11-19T12:15:27;21.25;;;5.22;;
21833;SDS011;11079;51.092;3.458;2023-11-19T12:18:20;29.48;;;7.05;;
21833;SDS011;11079;51.092;3.458;2023-11-19T12:21:29;28.67;;;5.60;;
21833;SDS011;11079;51.092;3.458;2023-11-19T15:11:30;25.05;;;4.50;;
21833;SDS011;11079;51.092;3.458;2023-11-19T15:42:33;27.85;;;5.38;;
21833;SDS011;11079;51.092;3.458;2023-11-19T16:12:46;21.83;;;4.10;;
21833;SDS011;11079;51.092;3.458;2023-11-19T16:15:14;18.48;;;3.70;;
21833;SDS011;11079;51.092;3.458;2023-11-19T16:17:43;17.67;;;3.83;;
21833;SDS011;11079;51.092;3.458;2023-11-19T16:20:19;24.60;;;4.65;;
21833;SDS011;11079;51.092;3.458;2023-11-19T17:55:02;21.85;;;6.40;;
21833;SDS011;11079;51.092;3.458;2023-11-19T18:04:07;17.50;;;4.75;;
21833;SDS011;11079;51.092;3.458;2023-11-19T19:05:18;11.95;;;2.85;;
21833;SDS011;11079;51.092;3.458;2023-11-19T19:15:14;15.05;;;3.58;;
21833;SDS011;11079;51.092;3.458;2023-11-19T19:25:11;15.40;;;3.72;;
21833;SDS011;11079;51.092;3.458;2023-11-19T19:28:15;13.32;;;3.58;;
21833;SDS011;11079;51.092;3.458;2023-11-19T19:31:05;22.30;;;4.38;;
21833;SDS011;11079;51.092;3.458;2023-11-19T19:40:34;16.50;;;3.67;;
21833;SDS011;11079;51.092;3.458;2023-11-19T20:28:38;13.20;;;3.05;;
21833;SDS011;11079;51.092;3.458;2023-11-19T21:21:07;17.35;;;3.58;;
21833;SDS011;11079;51.092;3.458;2023-11-19T21:24:15;13.85;;;3.33;;
21833;SDS011;11079;51.092;3.458;2023-11-19T21:27:11;19.25;;;4.13;;
21833;SDS011;11079;51.092;3.458;2023-11-19T21:44:02;15.77;;;3.50;;
21833;SDS011;11079;51.092;3.458;2023-11-19T21:47:26;12.75;;;4.28;;
21833;SDS011;11079;51.092;3.458;2023-11-19T21:50:45;20.63;;;4.10;;
21833;SDS011;11079;51.092;3.458;2023-11-19T21:53:52;22.88;;;3.08;;
21833;SDS011;11079;51.092;3.458;2023-11-19T21:56:18;21.90;;;4.13;;
21833;SDS011;11079;51.092;3.458;2023-11-19T21:58:56;11.93;;;2.70;;
21833;SDS011;11079;51.092;3.458;2023-11-19T22:01:27;13.43;;;2.90;;
21833;SDS011;11079;51.092;3.458;2023-11-19T22:04:02;13.73;;;2.95;;
21833;SDS011;11079;51.092;3.458;2023-11-19T22:13:13;7.13;;;1.90;;
21833;SDS011;11079;51.092;3.458;2023-11-19T22:16:12;14.23;;;2.60;;
21833;SDS011;11079;51.092;3.458;2023-11-19T22:19:30;7.80;;;2.05;;
21833;SDS011;11079;51.092;3.458;2023-11-19T22:22:30;9.10;;;2.30;;
21833;SDS011;11079;51.092;3.458;2023-11-19T22:25:38;11.70;;;2.40;;
21833;SDS011;11079;51.092;3.458;2023-11-19T22:28:44;9.68;;;2.47;;
21833;SDS011;11079;51.092;3.458;2023-11-19T22:31:38;15.23;;;3.20;;
21833;SDS011;11079;51.092;3.458;2023-11-19T22:40:20;15.88;;;2.92;;
21833;SDS011;11079;51.092;3.458;2023-11-19T22:46:13;14.80;;;3.35;;
21833;SDS011;11079;51.092;3.458;2023-11-19T22:48:49;19.10;;;4.20;;
21833;SDS011;11079;51.092;3.458;2023-11-19T22:51:19;18.65;;;4.75;;
21833;SDS011;11079;51.092;3.458;2023-11-19T22:53:46;16.73;;;4.18;;
21833;SDS011;11079;51.092;3.458;2023-11-19T22:56:11;21.45;;;5.80;;
